Time;durP1;ratioP1;P1;durP2;ratioP2;P2;SDS_P1;SDS_P2;PMS_P1;PMS_P2;Temp;Humidity;BMP_temperature;BMP_pressure;BME280_temperature;BME280_humidity;BME280_pressure;Samples;Min_cycle;Max_cycle;Signal;HPM_P1;HPM_P2
2023/10/23 00:00:32;;;;;;;18.27;10.37;;;5.60;99.90;;;;;;6311741;22;20021;-86
2023/10/23 00:02:57;;;;;;;18.00;10.67;;;5.60;99.90;;;;;;6311537;22;20023;-86
2023/10/23 00:05:23;;;;;;;18.07;10.43;;;5.50;99.90;;;;;;6311141;22;20015;-86
2023/10/23 00:07:48;;;;;;;18.93;11.60;;;5.50;99.90;;;;;;6339930;22;20370;-86
2023/10/23 00:10:14;;;;;;;17.80;10.70;;;5.50;99.90;;;;;;6311791;22;20026;-86
2023/10/23 00:12:40;;;;;;;18.53;10.80;;;5.50;99.90;;;;;;6312358;22;20010;-86
2023/10/23 00:15:06;;;;;;;19.10;11.47;;;5.40;99.90;;;;;;6312438;22;20011;-86
2023/10/23 00:17:32;;;;;;;20.07;12.20;;;5.40;99.90;;;;;;6310439;22;20089;-86
2023/10/23 00:19:59;;;;;;;20.33;13.03;;;5.40;99.90;;;;;;6339437;22;20037;-86
2023/10/23 00:22:25;;;;;;;20.53;12.30;;;5.40;99.90;;;;;;6313145;22;20018;-86
2023/10/23 00:24:50;;;;;;;21.87;12.80;;;5.40;99.90;;;;;;6311893;22;20015;-86
2023/10/23 00:27:16;;;;;;;23.10;11.97;;;5.40;99.90;;;;;;6312155;22;20395;-86
2023/10/23 00:29:41;;;;;;;19.93;12.53;;;5.40;99.90;;;;;;6312159;22;20018;-86
2023/10/23 00:32:07;;;;;;;19.40;12.23;;;5.40;99.90;;;;;;6338545;22;20015;-86
2023/10/23 00:34:33;;;;;;;19.60;12.03;;;5.40;99.90;;;;;;6339406;22;20503;-86
2023/10/23 00:36:58;;;;;;;19.47;12.33;;;5.40;99.90;;;;;;6339701;22;20067;-86
2023/10/23 00:39:24;;;;;;;19.43;12.63;;;5.40;99.90;;;;;;6310748;22;20019;-86
2023/10/23 00:41:49;;;;;;;20.30;12.60;;;5.40;99.90;;;;;;6312242;22;20100;-86
2023/10/23 00:44:15;;;;;;;19.10;11.73;;;5.30;99.90;;;;;;6311634;22;20006;-86
2023/10/23 00:46:42;;;;;;;27.93;16.13;;;5.30;99.90;;;;;;6311186;22;20023;-86
2023/10/23 00:49:09;;;;;;;22.53;13.47;;;5.30;99.90;;;;;;6339090;22;20026;-86
2023/10/23 00:51:35;;;;;;;23.47;13.07;;;5.30;99.90;;;;;;6311854;22;20018;-86
2023/10/23 00:54:02;;;;;;;24.10;14.33;;;5.30;99.90;;;;;;6310925;22;20021;-86
2023/10/23 00:56:28;;;;;;;31.53;17.90;;;5.60;99.90;;;;;;6311961;22;20030;-86
2023/10/23 00:58:54;;;;;;;29.27;18.33;;;6.30;99.90;;;;;;6311426;22;20065;-86
2023/10/23 01:01:20;;;;;;;27.17;16.73;;;5.50;99.90;;;;;;6311414;22;20343;-86
2023/10/23 01:03:46;;;;;;;27.90;15.10;;;5.50;99.90;;;;;;6312204;22;20392;-86
2023/10/23 01:06:14;;;;;;;27.93;15.67;;;5.60;99.90;;;;;;6309273;22;20014;-86
2023/10/23 01:08:40;;;;;;;27.80;15.53;;;5.50;99.90;;;;;;6311155;22;20014;-86
2023/10/23 01:11:06;;;;;;;31.23;16.40;;;5.60;99.90;;;;;;6311910;22;20025;-86
2023/10/23 01:13:31;;;;;;;27.47;15.60;;;5.60;99.90;;;;;;6310862;22;20031;-86
2023/10/23 01:15:57;;;;;;;27.80;16.17;;;5.60;99.90;;;;;;6311402;22;20098;-86
2023/10/23 01:18:23;;;;;;;24.77;15.47;;;5.60;99.90;;;;;;6338736;22;20072;-86
2023/10/23 01:20:48;;;;;;;27.57;16.10;;;5.50;99.90;;;;;;6310239;22;20438;-86
2023/10/23 01:23:14;;;;;;;26.20;15.27;;;5.50;99.90;;;;;;6311165;22;20064;-86
2023/10/23 01:25:40;;;;;;;27.20;15.17;;;5.50;99.90;;;;;;6311958;22;20011;-86
2023/10/23 01:28:06;;;;;;;25.50;15.17;;;5.50;99.90;;;;;;6338399;22;20025;-86
2023/10/23 01:30:32;;;;;;;27.40;15.50;;;5.40;99.90;;;;;;6311313;22;20015;-86
2023/10/23 01:32:58;;;;;;;27.17;15.40;;;5.30;99.90;;;;;;6311831;22;20022;-86
2023/10/23 01:35:24;;;;;;;27.27;15.47;;;6.50;99.90;;;;;;6309426;22;20011;-86
2023/10/23 01:37:49;;;;;;;25.40;15.20;;;5.20;99.90;;;;;;6339489;22;20011;-86
2023/10/23 01:40:15;;;;;;;28.07;14.70;;;5.20;99.90;;;;;;6311013;22;20007;-86
2023/10/23 01:42:42;;;;;;;23.77;14.50;;;5.20;99.90;;;;;;6310566;22;20042;-86
2023/10/23 01:45:08;;;;;;;24.90;14.07;;;5.10;99.90;;;;;;6338709;22;20023;-85
2023/10/23 01:47:34;;;;;;;27.43;14.23;;;5.10;99.90;;;;;;6311416;22;20431;-86
2023/10/23 01:49:59;;;;;;;22.77;13.50;;;5.10;99.90;;;;;;6338471;22;20021;-85
2023/10/23 01:52:25;;;;;;;25.10;14.30;;;5.00;99.90;;;;;;6310488;22;20116;-86
2023/10/23 01:54:52;;;;;;;25.07;14.30;;;5.00;99.90;;;;;;6310693;22;20018;-86
2023/10/23 01:57:18;;;;;;;23.00;13.63;;;5.40;99.90;;;;;;6310015;22;20049;-86
2023/10/23 01:59:44;;;;;;;25.20;14.70;;;4.90;99.90;;;;;;6310731;22;20022;-86
2023/10/23 02:02:09;;;;;;;23.07;13.43;;;4.90;99.90;;;;;;6309924;22;20429;-86
2023/10/23 02:04:36;;;;;;;23.03;13.20;;;4.80;99.90;;;;;;6310388;22;20018;-86
2023/10/23 02:07:02;;;;;;;24.00;13.47;;;4.80;99.90;;;;;;6310412;22;20339;-86
2023/10/23 02:09:28;;;;;;;22.17;12.90;;;4.80;99.90;;;;;;6309248;22;20033;-86
2023/10/23 02:11:53;;;;;;;24.27;14.47;;;4.80;99.90;;;;;;6311116;22;20022;-86
2023/10/23 02:14:19;;;;;;;23.07;13.47;;;4.70;99.90;;;;;;6310354;22;20026;-85
2023/10/23 02:16:44;;;;;;;23.67;13.93;;;4.70;99.90;;;;;;6337965;22;20018;-86
2023/10/23 02:19:10;;;;;;;22.87;13.00;;;4.70;99.90;;;;;;6337885;22;20034;-86
2023/10/23 02:21:36;;;;;;;23.20;13.37;;;4.60;99.90;;;;;;6310984;22;20010;-86
2023/10/23 02:24:02;;;;;;;21.30;13.17;;;4.60;99.90;;;;;;6338039;22;20068;-86
2023/10/23 02:26:28;;;;;;;21.87;13.07;;;4.60;99.90;;;;;;6310535;22;20452;-86
2023/10/23 02:28:55;;;;;;;21.63;13.43;;;4.60;99.90;;;;;;6311029;22;20017;-86
2023/10/23 02:31:20;;;;;;;22.73;14.10;;;4.50;99.90;;;;;;6309684;22;20026;-86
2023/10/23 02:33:46;;;;;;;22.77;13.70;;;4.50;99.90;;;;;;6310758;22;20019;-86
2023/10/23 02:36:12;;;;;;;22.80;13.53;;;4.50;99.90;;;;;;6310804;22;20011;-86
2023/10/23 02:38:37;;;;;;;22.67;13.03;;;4.50;99.90;;;;;;6309699;22;20019;-85
2023/10/23 02:41:03;;;;;;;20.43;12.33;;;4.50;99.90;;;;;;6338583;22;20011;-86
2023/10/23 02:43:28;;;;;;;21.57;13.17;;;4.50;99.90;;;;;;6338473;22;20373;-86
2023/10/23 02:45:54;;;;;;;22.43;13.27;;;4.50;99.90;;;;;;6309897;22;20515;-86
2023/10/23 02:48:20;;;;;;;22.23;12.57;;;4.40;99.90;;;;;;6338263;22;20026;-86
2023/10/23 02:50:53;;;;;;;20.60;12.53;;;4.40;99.90;;;;;;6338943;22;20030;-86
2023/10/23 02:53:18;;;;;;;21.58;12.43;;;4.40;99.90;;;;;;6337032;22;20022;-86
2023/10/23 02:55:44;;;;;;;20.27;12.00;;;4.40;99.90;;;;;;6338987;22;20017;-86
2023/10/23 02:58:10;;;;;;;23.70;13.10;;;4.40;99.90;;;;;;6338556;22;20022;-85
2023/10/23 03:00:35;;;;;;;21.80;12.23;;;4.30;99.90;;;;;;6310035;22;20025;-86
2023/10/23 03:03:01;;;;;;;22.40;13.33;;;4.30;99.90;;;;;;6338600;22;20080;-86
2023/10/23 03:05:27;;;;;;;23.73;12.87;;;4.30;99.90;;;;;;6309426;22;20022;-86
2023/10/23 03:07:52;;;;;;;23.53;14.03;;;4.30;99.90;;;;;;6310609;22;20023;-85
2023/10/23 03:10:18;;;;;;;28.13;14.43;;;4.20;99.90;;;;;;6337879;22;20015;-86
2023/10/23 03:12:44;;;;;;;22.73;13.60;;;4.30;99.90;;;;;;6309335;22;20023;-86
2023/10/23 03:15:11;;;;;;;23.40;13.47;;;4.30;99.90;;;;;;6310447;22;20015;-85
2023/10/23 03:17:37;;;;;;;23.00;13.03;;;4.30;99.90;;;;;;6310875;22;20438;-86
2023/10/23 03:20:03;;;;;;;21.47;13.27;;;4.20;99.90;;;;;;6338713;22;20022;-87
2023/10/23 03:22:29;;;;;;;22.03;12.93;;;4.30;99.90;;;;;;6310172;22;20022;-85
2023/10/23 03:24:55;;;;;;;22.97;13.53;;;4.20;99.90;;;;;;6338357;22;20015;-85
2023/10/23 03:27:21;;;;;;;22.70;13.73;;;4.20;99.90;;;;;;6309468;22;20037;-85
2023/10/23 03:29:46;;;;;;;23.43;13.77;;;4.20;99.90;;;;;;6310716;22;20064;-85
2023/10/23 03:32:12;;;;;;;23.83;13.50;;;4.20;99.90;;;;;;6310240;22;20011;-86
2023/10/23 03:34:37;;;;;;;23.40;14.07;;;4.20;99.90;;;;;;6309726;22;20450;-85
2023/10/23 03:37:03;;;;;;;24.87;14.33;;;4.20;99.90;;;;;;6310437;22;20023;-85
2023/10/23 03:39:29;;;;;;;26.07;14.27;;;4.10;99.90;;;;;;6309801;22;20022;-85
2023/10/23 03:41:56;;;;;;;23.83;13.80;;;4.20;99.90;;;;;;6337426;22;20067;-85
2023/10/23 03:44:21;;;;;;;26.57;15.23;;;4.20;99.90;;;;;;6337364;22;20416;-86
2023/10/23 03:46:47;;;;;;;23.83;14.07;;;5.20;99.90;;;;;;6310517;22;20106;-85
2023/10/23 03:49:12;;;;;;;28.60;15.50;;;4.20;99.90;;;;;;6308946;22;20045;-85
2023/10/23 03:51:38;;;;;;;26.83;15.60;;;4.20;99.90;;;;;;6310291;22;20018;-85
2023/10/23 03:54:03;;;;;;;26.60;15.37;;;4.30;99.90;;;;;;6310383;22;20014;-86
2023/10/23 03:56:29;;;;;;;30.73;16.33;;;4.40;99.90;;;;;;6309173;22;20044;-85
2023/10/23 03:58:55;;;;;;;27.03;15.40;;;4.40;99.90;;;;;;6310254;22;20011;-85
2023/10/23 04:01:20;;;;;;;29.93;16.70;;;4.50;99.90;;;;;;6309783;22;20088;-85
2023/10/23 04:03:46;;;;;;;30.67;16.87;;;4.50;99.90;;;;;;6336968;22;20015;-86
2023/10/23 04:06:11;;;;;;;29.73;16.07;;;4.50;99.90;;;;;;6309401;22;20029;-85
2023/10/23 04:08:37;;;;;;;29.20;16.20;;;4.50;99.90;;;;;;6309690;22;20019;-86
2023/10/23 04:11:03;;;;;;;28.90;15.90;;;4.50;99.90;;;;;;6337715;22;20320;-85
2023/10/23 04:13:29;;;;;;;28.80;16.27;;;4.50;99.90;;;;;;6309851;22;20026;-85
2023/10/23 04:15:57;;;;;;;28.07;15.53;;;4.60;99.90;;;;;;6309237;22;20339;-85
2023/10/23 04:18:24;;;;;;;28.33;15.73;;;4.60;99.90;;;;;;6309929;22;20042;-85
2023/10/23 04:20:50;;;;;;;30.00;16.47;;;4.70;99.90;;;;;;6337732;22;20091;-85
2023/10/23 04:23:15;;;;;;;29.67;16.13;;;4.70;99.90;;;;;;6336385;22;20483;-85
2023/10/23 04:25:41;;;;;;;30.83;15.63;;;4.70;99.90;;;;;;6337899;22;20015;-86
2023/10/23 04:28:07;;;;;;;33.63;15.33;;;4.70;99.90;;;;;;6310599;22;20046;-85
2023/10/23 04:30:32;;;;;;;24.50;13.80;;;4.70;99.90;;;;;;6309384;22;20427;-85
2023/10/23 04:32:58;;;;;;;28.30;16.23;;;4.70;99.90;;;;;;6338403;22;20044;-86
2023/10/23 04:35:23;;;;;;;27.30;15.10;;;4.60;99.90;;;;;;6309328;22;20025;-85
2023/10/23 04:37:49;;;;;;;28.30;15.03;;;4.60;99.90;;;;;;6339392;22;20072;-85
2023/10/23 04:40:15;;;;;;;26.10;14.83;;;4.60;99.90;;;;;;6311416;22;20011;-85
2023/10/23 04:42:41;;;;;;;28.77;15.40;;;4.50;99.90;;;;;;6312367;22;20324;-85
2023/10/23 04:45:07;;;;;;;28.70;15.57;;;4.50;99.90;;;;;;6311656;22;20053;-85
2023/10/23 04:47:32;;;;;;;28.60;14.73;;;4.40;99.90;;;;;;6312020;22;20037;-85
2023/10/23 04:49:58;;;;;;;26.23;14.37;;;4.40;99.90;;;;;;6311226;22;20018;-86
2023/10/23 04:52:23;;;;;;;27.20;15.37;;;6.00;99.90;;;;;;6310734;22;20011;-85
2023/10/23 04:54:49;;;;;;;27.17;15.03;;;4.40;99.90;;;;;;6311777;22;20061;-85
2023/10/23 04:57:15;;;;;;;27.17;14.80;;;4.30;99.90;;;;;;6311083;22;20438;-85
2023/10/23 04:59:41;;;;;;;26.53;14.90;;;4.30;99.90;;;;;;6338574;22;20098;-86
2023/10/23 05:02:06;;;;;;;26.80;15.43;;;4.30;99.90;;;;;;6311906;22;20450;-85
2023/10/23 05:04:32;;;;;;;27.67;15.10;;;4.30;99.90;;;;;;6311028;22;20011;-85
2023/10/23 05:06:59;;;;;;;30.60;16.10;;;4.30;99.90;;;;;;6309525;22;20023;-84
2023/10/23 05:09:24;;;;;;;28.97;16.00;;;4.30;99.90;;;;;;6308867;22;20017;-84
2023/10/23 05:11:50;;;;;;;31.17;16.43;;;4.30;99.90;;;;;;6336982;22;20438;-85
2023/10/23 05:14:15;;;;;;;26.20;15.03;;;4.30;99.90;;;;;;6310211;22;20392;-85
2023/10/23 05:16:41;;;;;;;27.10;14.80;;;4.30;99.90;;;;;;6311354;22;20317;-85
2023/10/23 05:19:08;;;;;;;28.43;14.83;;;4.30;99.90;;;;;;6310579;22;20023;-85
2023/10/23 05:21:34;;;;;;;28.07;15.23;;;4.30;99.90;;;;;;6311393;22;20439;-85
2023/10/23 05:23:59;;;;;;;31.70;16.63;;;4.30;99.90;;;;;;6310902;22;20022;-85
2023/10/23 05:26:25;;;;;;;31.47;16.70;;;4.30;99.90;;;;;;6338044;22;20076;-86
2023/10/23 05:28:51;;;;;;;28.37;16.63;;;5.60;99.90;;;;;;6311583;22;20011;-85
2023/10/23 05:31:17;;;;;;;30.33;16.40;;;4.30;99.90;;;;;;6311256;22;20102;-85
2023/10/23 05:33:43;;;;;;;33.97;16.93;;;4.40;99.90;;;;;;6338106;22;20046;-86
2023/10/23 05:36:09;;;;;;;31.43;16.27;;;4.40;99.90;;;;;;6310818;22;20427;-86
2023/10/23 05:38:36;;;;;;;31.63;15.87;;;4.40;99.90;;;;;;6338338;22;20094;-85
2023/10/23 05:41:02;;;;;;;30.80;17.40;;;4.40;99.90;;;;;;6310348;22;20090;-85
2023/10/23 05:43:28;;;;;;;33.43;17.43;;;4.40;99.90;;;;;;6311059;22;20116;-86
2023/10/23 05:45:55;;;;;;;37.77;18.73;;;4.40;99.90;;;;;;6339171;22;20073;-85
2023/10/23 05:48:21;;;;;;;38.47;18.50;;;4.40;99.90;;;;;;6337700;22;20011;-85
2023/10/23 05:51:04;;;;;;;35.10;19.03;;;4.40;99.90;;;;;;6338810;22;20485;-85
2023/10/23 05:53:30;;;;;;;34.70;18.55;;;4.50;99.90;;;;;;6311320;22;20115;-86
2023/10/23 05:56:06;;;;;;;36.40;18.27;;;4.40;99.90;;;;;;6310862;22;20474;-87
2023/10/23 05:58:35;;;;;;;34.03;18.03;;;4.40;99.90;;;;;;6310998;22;20133;-85
2023/10/23 06:01:05;;;;;;;43.33;20.90;;;4.40;99.90;;;;;;6338712;22;20023;-85
2023/10/23 06:03:31;;;;;;;36.07;18.03;;;5.80;99.90;;;;;;6309986;22;20220;-85
2023/10/23 06:05:57;;;;;;;36.20;19.57;;;4.30;99.90;;;;;;6311290;22;20082;-85
2023/10/23 06:08:22;;;;;;;38.17;19.40;;;4.40;99.90;;;;;;6307474;22;20021;-84
2023/10/23 06:10:51;;;;;;;37.40;18.70;;;4.40;99.90;;;;;;6311020;22;20395;-85
2023/10/23 06:13:16;;;;;;;36.47;18.90;;;4.50;99.90;;;;;;6309592;22;20018;-83
2023/10/23 06:15:42;;;;;;;47.07;19.60;;;4.50;99.90;;;;;;6310501;22;20034;-86
2023/10/23 06:18:07;;;;;;;45.73;19.13;;;4.50;99.90;;;;;;6310554;22;20058;-85
2023/10/23 06:20:34;;;;;;;39.47;18.93;;;4.60;99.90;;;;;;6310486;22;20022;-85
2023/10/23 06:23:00;;;;;;;39.70;19.03;;;4.60;99.90;;;;;;6309569;22;20026;-85
2023/10/23 06:25:26;;;;;;;51.37;19.90;;;5.80;99.90;;;;;;6309942;22;20015;-85
2023/10/23 06:27:52;;;;;;;48.50;19.07;;;4.70;99.90;;;;;;6310402;22;20022;-85
2023/10/23 06:30:19;;;;;;;50.60;20.20;;;4.70;99.90;;;;;;6308620;22;20512;-84
2023/10/23 06:32:44;;;;;;;50.10;20.43;;;4.90;99.90;;;;;;6310394;22;20018;-85
2023/10/23 06:35:10;;;;;;;51.70;20.93;;;5.00;99.90;;;;;;6310364;22;20026;-85
2023/10/23 06:37:35;;;;;;;43.53;20.50;;;5.10;99.90;;;;;;6307619;22;20059;-83
2023/10/23 06:40:01;;;;;;;42.10;20.33;;;5.20;99.90;;;;;;6309774;22;20347;-84
2023/10/23 06:42:27;;;;;;;40.57;18.73;;;5.20;99.90;;;;;;6284161;22;20094;-84
2023/10/23 06:44:53;;;;;;;43.53;20.27;;;5.20;99.90;;;;;;6309465;22;20316;-84
2023/10/23 06:47:19;;;;;;;40.23;20.10;;;5.30;99.90;;;;;;6310179;22;20011;-84
2023/10/23 06:49:44;;;;;;;41.03;19.67;;;5.40;99.90;;;;;;6310671;22;20442;-84
2023/10/23 06:52:10;;;;;;;39.93;19.00;;;5.40;99.90;;;;;;6309300;22;20064;-84
2023/10/23 06:54:36;;;;;;;35.57;18.03;;;6.30;99.90;;;;;;6310391;22;20015;-84
2023/10/23 06:57:06;;;;;;;39.63;19.23;;;5.40;99.90;;;;;;6310167;22;20607;-84
2023/10/23 06:59:33;;;;;;;38.87;18.57;;;7.20;99.90;;;;;;6309279;22;20102;-84
2023/10/23 07:02:00;;;;;;;37.53;18.03;;;5.70;99.90;;;;;;6310696;22;20014;-83
2023/10/23 07:04:26;;;;;;;34.70;17.73;;;5.80;99.90;;;;;;6309854;22;20033;-83
2023/10/23 07:06:52;;;;;;;36.40;18.57;;;5.80;99.90;;;;;;6310021;22;20010;-83
2023/10/23 07:09:18;;;;;;;38.00;18.73;;;5.90;99.90;;;;;;6310059;22;20019;-83
2023/10/23 07:11:46;;;;;;;40.73;19.00;;;5.90;99.90;;;;;;6309154;22;20014;-83
2023/10/23 07:14:13;;;;;;;40.70;19.20;;;5.90;99.90;;;;;;6309936;22;20015;-83
2023/10/23 07:16:39;;;;;;;40.53;18.90;;;7.20;99.90;;;;;;6310288;22;20093;-82
2023/10/23 07:19:05;;;;;;;43.27;20.03;;;6.10;99.90;;;;;;6309439;22;20054;-82
2023/10/23 07:21:31;;;;;;;36.07;18.03;;;6.20;99.90;;;;;;6310116;22;20022;-83
2023/10/23 07:23:56;;;;;;;46.30;21.13;;;7.30;99.90;;;;;;6309932;22;20050;-83
2023/10/23 07:26:22;;;;;;;47.50;20.90;;;6.30;99.90;;;;;;6308857;22;20049;-83
2023/10/23 07:28:48;;;;;;;51.40;21.20;;;6.30;99.90;;;;;;6309807;22;20457;-83
2023/10/23 07:31:14;;;;;;;58.43;21.50;;;6.30;99.90;;;;;;6310112;22;20018;-83
2023/10/23 07:33:39;;;;;;;66.00;23.67;;;6.40;99.90;;;;;;6309704;22;20458;-83
2023/10/23 07:36:10;;;;;;;52.63;22.40;;;6.40;99.90;;;;;;6309635;22;20015;-83
2023/10/23 07:38:42;;;;;;;67.10;23.50;;;6.50;99.90;;;;;;6310121;22;20011;-83
2023/10/23 07:41:09;;;;;;;58.27;22.80;;;7.50;99.90;;;;;;6308508;22;20025;-83
2023/10/23 07:43:35;;;;;;;56.27;21.77;;;7.60;99.90;;;;;;6310462;22;20015;-83
2023/10/23 07:46:10;;;;;;;62.57;22.73;;;8.00;99.90;;;;;;6310283;22;20326;-83
2023/10/23 07:48:36;;;;;;;56.17;21.67;;;6.70;99.90;;;;;;6309237;22;20029;-83
2023/10/23 07:51:05;;;;;;;74.53;22.90;;;6.70;99.90;;;;;;6305793;22;20381;-83
2023/10/23 07:53:32;;;;;;;89.27;24.53;;;6.80;99.90;;;;;;6309236;22;20518;-83
2023/10/23 07:55:59;;;;;;;96.17;25.47;;;6.90;99.90;;;;;;6309951;22;20027;-86
2023/10/23 07:58:25;;;;;;;141.40;29.47;;;7.60;99.90;;;;;;6309539;22;20049;-86
2023/10/23 08:00:53;;;;;;;114.67;26.00;;;7.10;99.90;;;;;;6337144;22;20019;-86
2023/10/23 08:03:19;;;;;;;86.93;24.07;;;7.80;99.90;;;;;;6309473;22;20022;-83
2023/10/23 08:05:46;;;;;;;118.67;27.40;;;7.20;99.90;;;;;;6309187;22;20019;-83
2023/10/23 08:08:12;;;;;;;188.00;27.73;;;7.30;99.90;;;;;;6308463;22;20027;-83
2023/10/23 08:10:38;;;;;;;92.40;24.77;;;7.40;99.90;;;;;;6309647;22;20466;-84
2023/10/23 08:13:04;;;;;;;223.37;31.63;;;7.50;99.90;;;;;;6311633;22;20094;-83
2023/10/23 08:15:30;;;;;;;151.70;25.80;;;7.60;99.90;;;;;;6310265;22;20022;-83
2023/10/23 08:17:55;;;;;;;205.60;26.63;;;7.70;99.90;;;;;;6311264;22;20018;-84
2023/10/23 08:20:21;;;;;;;123.90;22.73;;;7.90;99.90;;;;;;6339092;22;20099;-84
2023/10/23 08:22:47;;;;;;;184.75;26.42;;;7.90;99.90;;;;;;6338799;22;20351;-83
2023/10/23 08:25:14;;;;;;;289.27;30.63;;;8.10;99.90;;;;;;6338534;22;20010;-81
2023/10/23 08:27:39;;;;;;;132.68;20.50;;;8.10;99.90;;;;;;6339299;22;20508;-83
2023/10/23 08:30:06;;;;;;;143.07;21.83;;;8.20;99.90;;;;;;6338388;22;20019;-84
2023/10/23 08:32:35;;;;;;;139.90;19.30;;;8.20;99.90;;;;;;6311242;22;20049;-83
2023/10/23 08:35:00;;;;;;;74.93;17.05;;;8.30;99.90;;;;;;6338711;22;20022;-84
2023/10/23 08:37:26;;;;;;;169.82;23.08;;;8.30;99.90;;;;;;6338193;22;20011;-84
2023/10/23 08:39:51;;;;;;;236.90;23.85;;;8.30;99.90;;;;;;6311467;22;20015;-84
2023/10/23 08:42:17;;;;;;;150.45;19.77;;;9.40;99.90;;;;;;6311340;22;20087;-84
2023/10/23 08:44:45;;;;;;;211.35;23.52;;;9.40;99.90;;;;;;6310587;22;20449;-84
2023/10/23 08:47:10;;;;;;;97.97;18.45;;;8.20;99.90;;;;;;6339035;22;20015;-84
2023/10/23 08:49:36;;;;;;;84.22;17.92;;;8.30;99.90;;;;;;6311481;22;20136;-84
2023/10/23 08:52:10;;;;;;;234.52;27.25;;;9.20;99.90;;;;;;6310586;22;20102;-84
2023/10/23 08:54:36;;;;;;;214.82;25.98;;;8.30;99.90;;;;;;6311488;22;20144;-83
2023/10/23 08:57:02;;;;;;;163.50;22.17;;;8.50;99.90;;;;;;6310828;22;20006;-84
2023/10/23 08:59:28;;;;;;;191.80;24.17;;;8.30;99.90;;;;;;6311321;22;20063;-84
2023/10/23 09:01:55;;;;;;;177.40;22.88;;;8.40;99.90;;;;;;6309489;22;20015;-84
2023/10/23 09:04:20;;;;;;;249.52;26.25;;;9.10;99.90;;;;;;6336568;22;20026;-85
2023/10/23 09:06:47;;;;;;;247.63;25.58;;;8.50;99.90;;;;;;6311378;22;20015;-84
2023/10/23 09:09:13;;;;;;;211.68;24.02;;;8.90;99.90;;;;;;6310964;22;20014;-84
2023/10/23 09:11:48;;;;;;;112.75;19.08;;;8.50;99.90;;;;;;6310737;22;20019;-84
2023/10/23 09:14:31;;;;;;;120.13;21.42;;;8.60;99.90;;;;;;6311057;22;20025;-84
2023/10/23 09:16:59;;;;;;;141.45;19.80;;;9.40;99.90;;;;;;6311834;22;20019;-84
2023/10/23 09:19:36;;;;;;;192.35;26.00;;;8.80;99.90;;;;;;6338417;22;20453;-86
2023/10/23 09:22:03;;;;;;;79.13;17.75;;;8.90;99.90;;;;;;6311351;22;20014;-85
2023/10/23 09:24:30;;;;;;;185.00;22.58;;;9.00;99.90;;;;;;6310635;22;20007;-84
2023/10/23 09:26:56;;;;;;;216.75;22.55;;;9.00;99.90;;;;;;6310552;22;20051;-85
2023/10/23 09:29:26;;;;;;;203.80;24.23;;;9.10;99.90;;;;;;6311072;22;20015;-86
2023/10/23 09:31:54;;;;;;;173.05;23.20;;;9.20;99.90;;;;;;6311865;22;20018;-86
2023/10/23 09:34:21;;;;;;;63.17;15.75;;;9.30;99.90;;;;;;6310277;22;20370;-87
2023/10/23 09:36:47;;;;;;;85.60;18.88;;;9.70;99.90;;;;;;6339490;22;20014;-87
2023/10/23 09:39:13;;;;;;;83.40;18.50;;;9.50;99.90;;;;;;6313357;22;20011;-87
2023/10/23 09:41:41;;;;;;;129.38;20.38;;;10.80;99.90;;;;;;6339448;22;20334;-86
2023/10/23 09:44:07;;;;;;;107.00;18.27;;;10.60;99.90;;;;;;6339796;22;20343;-86
2023/10/23 09:46:33;;;;;;;95.43;20.40;;;10.40;99.90;;;;;;6310919;22;20014;-86
2023/10/23 09:49:00;;;;;;;97.32;19.60;;;9.50;99.90;;;;;;6311718;22;20465;-86
2023/10/23 09:51:39;;;;;;;50.75;16.45;;;9.60;99.90;;;;;;6310897;22;20038;-85
2023/10/23 09:54:17;;;;;;;67.05;18.70;;;9.60;99.90;;;;;;6310020;22;20504;-86
2023/10/23 09:56:51;;;;;;;72.07;20.13;;;11.10;99.90;;;;;;6311148;22;20019;-87
2023/10/23 09:59:25;;;;;;;50.00;18.83;;;11.10;99.90;;;;;;6338723;22;20042;-86
2023/10/23 10:01:51;;;;;;;62.17;20.73;;;10.00;99.90;;;;;;6338475;22;20365;-86
2023/10/23 10:04:33;;;;;;;52.95;19.88;;;10.00;99.90;;;;;;6311000;22;20315;-87
2023/10/23 10:07:07;;;;;;;55.25;21.20;;;10.10;99.90;;;;;;6311137;22;20018;-85
2023/10/23 10:09:34;;;;;;;53.05;20.63;;;10.10;99.90;;;;;;6337807;22;20015;-86
2023/10/23 10:12:00;;;;;;;56.70;21.55;;;11.10;99.90;;;;;;6311530;22;20011;-86
2023/10/23 10:14:27;;;;;;;54.53;20.45;;;11.40;99.90;;;;;;6309542;22;20468;-86
2023/10/23 10:16:57;;;;;;;50.78;20.92;;;10.50;99.90;;;;;;6338824;22;20015;-86
2023/10/23 10:19:26;;;;;;;48.85;20.33;;;10.30;99.90;;;;;;6310686;22;20457;-84
2023/10/23 10:22:34;;;;;;;44.25;20.25;;;10.40;99.90;;;;;;6309902;22;20045;-86
2023/10/23 10:25:01;;;;;;;43.72;20.90;;;10.40;99.90;;;;;;6308918;22;20018;-86
2023/10/23 10:27:27;;;;;;;45.85;22.02;;;11.80;99.90;;;;;;6310154;22;20011;-86
2023/10/23 10:29:52;;;;;;;42.80;22.27;;;10.80;99.90;;;;;;6309321;22;20015;-86
2023/10/23 10:32:18;;;;;;;43.13;22.52;;;10.70;99.90;;;;;;6309478;22;20044;-88
2023/10/23 10:34:50;;;;;;;40.10;21.25;;;10.80;99.90;;;;;;6309470;22;20022;-86
2023/10/23 10:37:16;;;;;;;36.28;20.75;;;10.80;99.90;;;;;;6309445;22;20018;-85
2023/10/23 10:39:48;;;;;;;40.65;22.20;;;11.80;99.90;;;;;;6338367;22;20017;-84
2023/10/23 10:42:26;;;;;;;38.70;21.88;;;10.90;99.90;;;;;;6338876;22;20478;-87
2023/10/23 10:44:56;;;;;;;40.42;23.10;;;10.90;99.90;;;;;;6310250;22;20017;-87
2023/10/23 10:47:40;;;;;;;38.75;21.35;;;11.80;99.90;;;;;;6310530;22;20019;-86
2023/10/23 10:50:07;;;;;;;35.20;20.90;;;10.80;99.90;;;;;;6312019;22;20015;-87
2023/10/23 10:52:35;;;;;;;35.67;20.75;;;10.80;99.90;;;;;;6310883;22;20462;-86
2023/10/23 10:55:04;;;;;;;34.88;21.10;;;10.70;99.90;;;;;;6310626;22;20063;-87
2023/10/23 10:57:30;;;;;;;37.67;21.58;;;11.30;99.90;;;;;;6305957;22;20015;-87
2023/10/23 10:59:58;;;;;;;34.42;21.40;;;10.90;99.90;;;;;;6311865;22;20026;-87
2023/10/23 11:02:23;;;;;;;37.30;20.48;;;12.20;99.90;;;;;;6311423;22;20450;-87
2023/10/23 11:04:49;;;;;;;33.25;20.25;;;10.90;99.90;;;;;;6337798;22;20086;-87
2023/10/23 11:07:23;;;;;;;33.92;20.75;;;10.90;99.90;;;;;;6309940;22;20454;-87
2023/10/23 11:09:50;;;;;;;33.70;20.38;;;10.80;99.90;;;;;;6310394;22;20011;-87
2023/10/23 11:12:22;;;;;;;37.25;20.00;;;10.90;99.90;;;;;;6308981;22;20014;-87
2023/10/23 11:14:48;;;;;;;32.17;18.90;;;11.00;99.90;;;;;;6311230;22;20015;-87
2023/10/23 11:17:15;;;;;;;33.30;19.40;;;11.00;99.90;;;;;;6310537;22;20119;-87
2023/10/23 11:19:44;;;;;;;36.15;20.80;;;12.20;99.90;;;;;;6309381;22;20080;-86
2023/10/23 11:22:15;;;;;;;32.90;19.23;;;11.10;99.90;;;;;;6310802;22;20018;-87
2023/10/23 11:24:41;;;;;;;31.10;16.98;;;12.10;99.90;;;;;;6337850;22;20045;-87
2023/10/23 11:27:07;;;;;;;30.27;17.85;;;12.10;99.90;;;;;;6338131;22;20049;-87
2023/10/23 11:29:46;;;;;;;32.58;19.33;;;12.60;99.90;;;;;;6310834;22;20015;-87
2023/10/23 11:32:13;;;;;;;31.95;18.25;;;11.40;99.90;;;;;;6337431;22;20054;-87
2023/10/23 11:34:39;;;;;;;30.20;17.73;;;11.50;99.90;;;;;;6338327;22;20068;-87
2023/10/23 11:37:05;;;;;;;33.35;18.48;;;11.50;99.90;;;;;;6310523;22;20015;-86
2023/10/23 11:39:32;;;;;;;35.65;19.30;;;13.00;99.90;;;;;;6309152;22;20014;-87
2023/10/23 11:41:59;;;;;;;29.83;18.75;;;11.90;99.90;;;;;;6310621;22;20022;-87
2023/10/23 11:44:29;;;;;;;29.08;17.58;;;12.90;99.90;;;;;;6309993;22;20025;-87
2023/10/23 11:46:56;;;;;;;31.73;18.42;;;13.00;99.90;;;;;;6339144;22;20098;-87
2023/10/23 11:49:22;;;;;;;28.70;17.48;;;13.10;99.90;;;;;;6312084;22;20014;-87
2023/10/23 11:51:49;;;;;;;27.25;16.88;;;12.20;99.90;;;;;;6340674;22;20384;-87
2023/10/23 11:54:16;;;;;;;27.27;17.45;;;11.90;99.90;;;;;;6339419;22;20338;-87
2023/10/23 11:56:43;;;;;;;30.08;17.63;;;13.00;99.90;;;;;;6312884;22;20140;-87
2023/10/23 11:59:19;;;;;;;28.38;16.75;;;13.20;99.90;;;;;;6312189;22;20019;-87
2023/10/23 12:01:45;;;;;;;28.75;17.02;;;12.30;99.90;;;;;;6311615;22;20022;-87
2023/10/23 12:04:12;;;;;;;27.30;16.48;;;13.30;99.90;;;;;;6312133;22;20014;-87
2023/10/23 12:06:38;;;;;;;26.77;16.50;;;13.20;99.90;;;;;;6312567;22;20037;-87
2023/10/23 12:09:05;;;;;;;27.70;16.95;;;13.10;99.90;;;;;;6311114;22;20064;-87
2023/10/23 12:11:31;;;;;;;29.27;18.25;;;13.10;99.90;;;;;;6311738;22;20007;-87
2023/10/23 12:13:59;;;;;;;26.02;15.95;;;12.50;99.90;;;;;;6313835;22;20011;-87
2023/10/23 12:16:26;;;;;;;27.42;16.95;;;13.30;99.90;;;;;;6321299;22;20006;-87
2023/10/23 12:18:51;;;;;;;25.63;15.65;;;12.10;99.90;;;;;;6367570;22;20047;-87
2023/10/23 12:21:18;;;;;;;27.50;17.75;;;13.80;99.90;;;;;;6348212;22;20015;-87
2023/10/23 12:23:44;;;;;;;26.90;16.98;;;13.90;99.90;;;;;;6339908;22;20471;-87
2023/10/23 12:26:11;;;;;;;27.00;17.48;;;13.70;99.90;;;;;;6311788;22;20015;-87
2023/10/23 12:28:37;;;;;;;28.98;17.38;;;12.50;99.90;;;;;;6338820;22;20027;-87
2023/10/23 12:31:06;;;;;;;29.67;17.95;;;12.30;99.90;;;;;;6340574;22;20089;-87